Airfield :
LOGIN :

Register | Disclaimer

   EN    FR    IT 

 










Legend :    VFR   Marginal VFR   IFR   Intensive IFR   Very Intensive IFR
Visi :
Ceiling :
>= 8 km
>= 3000ft
5 to 8 km
1000 to 3000 ft
1500m to 5 km
500 to 1000 ft
800 to 1500m
200 to 500 ft
< 800m
< 200 ft
Symbols :   Thunderstorms  Fog  Heavy snow  Heavy precipitations  Wind > 20 kt
SIGMETs :     Misc.  Thunderstorms  Icing  Turbulence  Mountain Waves  Volcanic Ashes







- Airport Elevation : 63 ft
- IATA code : BZM


EHWO - Woensdrecht Airbase

CURRENT METAR :
  • 221425Z AUTO 05015KT 010V090 9999 NCD 05/M05 Q1022 BLU 07014KT CAVOK TEMPO 07014G22KT

EXPIRED METARs :
  • 221355Z AUTO 07014KT 030V130 9999 NCD 05/M04 Q1023 BLU 07014KT CAVOK TEMPO 07014G22KT
  • 221325Z AUTO 07015KT 030V100 9999 NCD 05/M06 Q1023 BLU 07014KT CAVOK TEMPO 07014G22KT
  • 221255Z AUTO 07015G25KT 050V110 9999 NCD 05/M06 Q1023 BLU 07014KT CAVOK TEMPO 07014G22KT
  • 221225Z AUTO 07016KT 030V110 9999 NCD 04/M05 Q1024 BLU 07014KT CAVOK TEMPO 07014G22KT
  • 221155Z AUTO 07015KT 050V110 9999 NCD 04/M05 Q1024 BLU 07011KT CAVOK TEMPO 07011G21KT

TAF TAF EHWO
Valid from the 22 at 10:00 until the 22 at 22:00 UTC


220927Z 2210/2222 07011KT CAVOK
TEMPO 2210/2216 08011G22KT
No reported NOTAMs for that airfield.



MET'MAP, your aeronautical weather chart ! - Copyright ORBIFLY December 2007 - Disclaimer

ORBIFLY MET'MAP TEAM :

Programming & Development : Alexandra Zaïnal
Concept & Development : Baudouin d'Aumeries
Co-Development & Prog : Marc-Olivier Méhu
Technical & hardware support : Manuel Goepfert

Contact : metmap@orbifly.com




SOURCES & CREDITS :

   NOAA